Time;durP1;ratioP1;P1;durP2;ratioP2;P2;SDS_P1;SDS_P2;PMS_P1;PMS_P2;Temp;Humidity;BMP_temperature;BMP_pressure;BME280_temperature;BME280_humidity;BME280_pressure;Samples;Min_cycle;Max_cycle;Signal;HPM_P1;HPM_P2
2022/09/14 00:00:47;;;;;;;8.13;5.60;;;21.60;99.90;;;;;;6156099;23;20422;-89
2022/09/14 00:03:14;;;;;;;6.70;6.00;;;21.60;99.90;;;;;;6156146;23;20427;-89
2022/09/14 00:05:42;;;;;;;10.30;6.50;;;21.60;99.90;;;;;;6159826;23;20414;-90
2022/09/14 00:08:10;;;;;;;8.40;5.67;;;21.60;99.90;;;;;;6182025;23;20431;-94
2022/09/14 00:10:40;;;;;;;10.00;6.03;;;21.60;99.90;;;;;;6182777;23;20885;-91
2022/09/14 00:13:06;;;;;;;9.03;6.67;;;21.70;99.90;;;;;;6178932;23;20451;-88
2022/09/14 00:15:36;;;;;;;7.80;6.00;;;21.70;99.90;;;;;;6161812;23;20415;-90
2022/09/14 00:18:03;;;;;;;9.37;5.80;;;21.60;99.90;;;;;;6157120;23;20458;-90
2022/09/14 00:20:30;;;;;;;8.93;5.27;;;21.70;99.90;;;;;;6155768;23;20414;-90
2022/09/14 00:22:58;;;;;;;6.60;5.37;;;21.70;99.90;;;;;;6155759;23;20467;-90
2022/09/14 00:25:26;;;;;;;8.33;5.80;;;21.60;99.90;;;;;;6157827;23;20475;-89
2022/09/14 00:27:52;;;;;;;6.13;4.83;;;21.60;99.90;;;;;;6164028;23;20439;-90
2022/09/14 00:30:20;;;;;;;7.67;5.30;;;21.60;99.90;;;;;;6160006;23;20416;-90
2022/09/14 00:32:47;;;;;;;5.93;4.60;;;21.60;99.90;;;;;;6160611;23;20423;-92
2022/09/14 00:35:13;;;;;;;5.90;5.30;;;21.60;99.90;;;;;;6182562;23;20395;-91
2022/09/14 00:37:40;;;;;;;4.67;4.10;;;21.60;99.90;;;;;;6164598;23;20415;-88
2022/09/14 00:40:11;;;;;;;6.30;4.97;;;21.60;99.90;;;;;;6156405;23;20430;-89
2022/09/14 00:42:38;;;;;;;8.07;5.43;;;21.60;99.90;;;;;;6164659;23;20491;-88
2022/09/14 00:45:13;;;;;;;8.07;4.60;;;21.60;99.90;;;;;;6168992;23;20421;-88
2022/09/14 00:47:40;;;;;;;13.53;5.50;;;21.60;99.90;;;;;;6175922;23;20434;-88
2022/09/14 00:50:07;;;;;;;8.00;5.80;;;21.60;99.90;;;;;;6170284;23;20731;-89
2022/09/14 00:52:37;;;;;;;7.53;4.83;;;21.70;99.90;;;;;;6167564;23;20405;-90
2022/09/14 00:55:09;;;;;;;5.53;4.60;;;21.70;99.90;;;;;;6157322;23;20407;-88
2022/09/14 00:57:40;;;;;;;5.90;4.43;;;21.60;99.90;;;;;;6155645;23;20412;-89
2022/09/14 01:00:09;;;;;;;6.90;5.00;;;21.60;99.90;;;;;;6155497;23;20431;-89
2022/09/14 01:02:37;;;;;;;5.33;4.83;;;21.60;99.90;;;;;;6155733;23;20399;-89
2022/09/14 01:05:05;;;;;;;9.50;5.60;;;21.60;99.90;;;;;;6156278;23;20421;-89
2022/09/14 01:07:46;;;;;;;6.20;5.33;;;21.60;99.90;;;;;;6156715;23;20448;-88
2022/09/14 01:10:23;;;;;;;7.57;5.40;;;21.60;99.90;;;;;;6181741;23;20382;-89
2022/09/14 01:13:04;;;;;;;8.30;5.20;;;21.60;99.90;;;;;;6174244;23;20438;-89
2022/09/14 01:15:40;;;;;;;6.10;4.70;;;21.60;99.90;;;;;;6182488;23;20410;-91
2022/09/14 01:18:13;;;;;;;8.87;4.70;;;21.60;99.90;;;;;;6183532;23;20405;-91
2022/09/14 01:20:45;;;;;;;6.47;4.87;;;21.60;99.90;;;;;;6163008;23;20396;-88
2022/09/14 01:23:17;;;;;;;5.93;4.07;;;21.60;99.90;;;;;;6159157;23;20427;-88
2022/09/14 01:26:16;;;;;;;7.00;4.73;;;21.50;99.90;;;;;;6165608;23;20421;-88
2022/09/14 01:28:50;;;;;;;5.33;4.80;;;21.50;99.90;;;;;;6076022;23;20446;-88
2022/09/14 01:31:26;;;;;;;6.30;5.03;;;21.50;99.90;;;;;;6166309;23;20418;-88
2022/09/14 01:34:00;;;;;;;3.57;3.27;;;21.30;99.90;;;;;;6175664;23;20446;-89
2022/09/14 01:36:30;;;;;;;21.43;5.90;;;21.30;99.90;;;;;;6175272;23;20391;-90
2022/09/14 01:38:58;;;;;;;8.63;4.47;;;21.00;99.90;;;;;;6157740;23;20411;-89
2022/09/14 01:41:29;;;;;;;11.10;5.67;;;20.30;99.90;;;;;;6156979;23;20411;-89
2022/09/14 01:44:02;;;;;;;6.17;5.33;;;20.00;99.90;;;;;;6155277;23;20427;-88
2022/09/14 01:46:34;;;;;;;6.03;4.83;;;19.90;99.90;;;;;;6155235;23;20408;-88
2022/09/14 01:49:04;;;;;;;7.33;4.70;;;19.70;99.90;;;;;;6155341;23;20738;-88
2022/09/14 01:51:37;;;;;;;9.37;3.97;;;19.50;99.90;;;;;;6156465;23;20935;-88
2022/09/14 01:54:11;;;;;;;9.30;3.77;;;19.40;99.90;;;;;;6154886;23;20450;-88
2022/09/14 01:56:43;;;;;;;8.03;3.90;;;19.30;99.90;;;;;;6155878;23;20376;-88
2022/09/14 01:59:15;;;;;;;5.23;3.60;;;19.20;99.90;;;;;;6155733;23;20407;-88
2022/09/14 02:01:46;;;;;;;9.17;3.93;;;19.10;99.90;;;;;;6154100;23;20395;-89
2022/09/14 02:04:16;;;;;;;8.07;4.37;;;19.10;99.90;;;;;;6154937;23;20426;-88
2022/09/14 02:06:46;;;;;;;10.10;5.00;;;19.10;99.90;;;;;;6155018;23;20454;-88
2022/09/14 02:09:17;;;;;;;10.90;4.57;;;19.20;99.90;;;;;;6154829;23;20447;-89
2022/09/14 02:11:45;;;;;;;6.90;4.40;;;19.20;99.90;;;;;;6154418;23;20395;-88
2022/09/14 02:14:13;;;;;;;7.17;4.23;;;19.30;99.90;;;;;;6154987;23;20435;-89
2022/09/14 02:16:42;;;;;;;7.17;4.70;;;19.30;99.90;;;;;;6170051;23;20387;-90
2022/09/14 02:19:09;;;;;;;5.87;3.70;;;19.30;99.90;;;;;;6176920;23;20766;-89
2022/09/14 02:21:36;;;;;;;7.03;5.10;;;19.30;99.90;;;;;;6158510;23;20403;-89
2022/09/14 02:24:04;;;;;;;7.60;4.43;;;19.30;99.90;;;;;;6157329;23;20477;-89
2022/09/14 02:26:31;;;;;;;8.17;5.70;;;19.30;99.90;;;;;;6181739;23;20411;-92
2022/09/14 02:28:58;;;;;;;6.73;4.90;;;19.30;99.90;;;;;;6175628;23;20458;-89
2022/09/14 02:31:36;;;;;;;6.87;4.97;;;19.30;99.90;;;;;;6155558;23;20411;-90
2022/09/14 02:34:08;;;;;;;6.87;4.80;;;19.30;99.90;;;;;;6154699;23;20435;-91
2022/09/14 02:36:46;;;;;;;8.47;5.03;;;19.30;99.90;;;;;;6155312;23;20424;-90
2022/09/14 02:39:23;;;;;;;9.37;4.90;;;19.30;99.90;;;;;;6155174;23;20391;-89
2022/09/14 02:41:55;;;;;;;8.60;5.97;;;19.30;99.90;;;;;;6155464;23;20395;-89
2022/09/14 02:44:30;;;;;;;6.10;4.80;;;19.30;99.90;;;;;;6166148;23;20420;-89
2022/09/14 02:47:05;;;;;;;7.83;4.77;;;19.40;99.90;;;;;;6173733;23;20384;-88
2022/09/14 02:49:43;;;;;;;5.63;5.00;;;19.50;99.90;;;;;;6157770;23;20395;-89
2022/09/14 02:52:16;;;;;;;8.37;4.90;;;19.40;99.90;;;;;;6181247;23;20383;-90
2022/09/14 02:54:48;;;;;;;8.17;5.30;;;19.40;99.90;;;;;;6175373;23;20423;-89
2022/09/14 02:57:15;;;;;;;5.90;4.30;;;19.40;99.90;;;;;;6158760;23;20395;-89
2022/09/14 02:59:41;;;;;;;10.47;5.30;;;19.40;99.90;;;;;;6167609;23;20414;-90
2022/09/14 03:02:10;;;;;;;8.40;5.13;;;19.40;99.90;;;;;;6170784;23;20419;-89
2022/09/14 03:04:43;;;;;;;8.27;5.37;;;19.30;99.90;;;;;;6167312;23;20958;-90
2022/09/14 03:07:10;;;;;;;5.07;4.23;;;19.30;99.90;;;;;;6154590;23;20402;-89
2022/09/14 03:09:37;;;;;;;7.33;5.20;;;19.30;99.90;;;;;;6154652;23;20416;-90
2022/09/14 03:12:04;;;;;;;6.40;5.13;;;19.30;99.90;;;;;;6153881;23;20783;-89
2022/09/14 03:14:31;;;;;;;7.40;5.20;;;19.30;99.90;;;;;;6153179;23;21406;-89
2022/09/14 03:16:57;;;;;;;6.13;5.63;;;19.30;99.90;;;;;;6155853;23;20411;-88
2022/09/14 03:19:32;;;;;;;8.47;5.07;;;19.30;99.90;;;;;;6155797;23;20399;-89
2022/09/14 03:21:58;;;;;;;6.20;5.10;;;19.40;99.90;;;;;;6153666;23;20881;-86
2022/09/14 03:24:25;;;;;;;6.30;4.70;;;19.30;99.90;;;;;;6155051;23;20831;-85
2022/09/14 03:26:52;;;;;;;6.87;5.00;;;19.30;99.90;;;;;;6158375;23;20411;-84
2022/09/14 03:29:18;;;;;;;7.73;4.83;;;19.30;99.90;;;;;;6158108;23;20443;-85
2022/09/14 03:31:47;;;;;;;5.23;4.73;;;19.10;99.90;;;;;;6159289;23;20403;-86
2022/09/14 03:34:13;;;;;;;6.33;5.40;;;19.10;99.90;;;;;;6157489;23;20439;-88
2022/09/14 03:36:41;;;;;;;5.70;4.97;;;19.10;99.90;;;;;;6156790;23;20462;-88
2022/09/14 03:39:08;;;;;;;6.23;4.90;;;19.10;99.90;;;;;;6157977;23;20438;-89
2022/09/14 03:41:38;;;;;;;11.43;6.50;;;19.10;99.90;;;;;;6157863;23;20411;-88
2022/09/14 03:44:04;;;;;;;9.07;6.77;;;19.10;99.90;;;;;;6157611;23;20427;-88
2022/09/14 03:46:31;;;;;;;8.33;7.03;;;19.10;99.90;;;;;;6157925;23;20407;-88
2022/09/14 03:49:05;;;;;;;11.97;7.73;;;19.10;99.90;;;;;;6177441;23;20423;-89
2022/09/14 03:51:33;;;;;;;16.50;10.37;;;19.10;99.90;;;;;;6175234;23;20458;-89
2022/09/14 03:54:01;;;;;;;11.03;9.77;;;19.00;99.90;;;;;;6156950;23;20443;-88
2022/09/14 03:56:28;;;;;;;14.07;12.57;;;19.00;99.90;;;;;;6157985;23;20414;-89
2022/09/14 03:58:55;;;;;;;14.60;11.60;;;19.10;99.90;;;;;;6175197;23;20399;-86
2022/09/14 04:01:22;;;;;;;10.30;9.23;;;19.10;99.90;;;;;;6168598;23;20399;-86
2022/09/14 04:03:50;;;;;;;12.60;8.60;;;19.10;99.90;;;;;;6163560;23;20439;-85
2022/09/14 04:06:17;;;;;;;10.60;8.27;;;19.10;99.90;;;;;;6183923;23;20410;-86
2022/09/14 04:08:45;;;;;;;11.20;7.77;;;19.10;99.90;;;;;;6182484;23;20514;-84
2022/09/14 04:11:15;;;;;;;11.43;7.47;;;19.10;99.90;;;;;;6160504;23;20422;-86
2022/09/14 04:13:43;;;;;;;9.50;7.07;;;19.10;99.90;;;;;;6156948;23;20439;-87
2022/09/14 04:16:09;;;;;;;9.60;6.50;;;19.10;99.90;;;;;;6156428;23;20392;-87
2022/09/14 04:18:48;;;;;;;8.83;7.20;;;19.00;99.90;;;;;;6181330;23;20395;-86
2022/09/14 04:21:16;;;;;;;9.30;6.20;;;19.00;99.90;;;;;;6183455;23;20394;-86
2022/09/14 04:23:43;;;;;;;8.23;7.53;;;19.00;99.90;;;;;;6171477;23;20434;-87
2022/09/14 04:26:11;;;;;;;7.30;6.73;;;19.00;99.90;;;;;;6155179;23;20398;-87
2022/09/14 04:28:39;;;;;;;8.17;7.37;;;19.00;99.90;;;;;;6155495;23;20447;-87
2022/09/14 04:31:06;;;;;;;10.00;7.60;;;19.00;99.90;;;;;;6156794;23;20411;-87
2022/09/14 04:33:35;;;;;;;11.60;8.87;;;19.00;99.90;;;;;;6155531;23;20446;-86
2022/09/14 04:36:04;;;;;;;13.00;8.30;;;19.10;99.90;;;;;;6156622;23;20716;-88
2022/09/14 04:38:32;;;;;;;10.20;8.40;;;19.10;99.90;;;;;;6157327;23;20388;-87
2022/09/14 04:41:12;;;;;;;12.40;11.20;;;19.10;99.90;;;;;;6158465;23;20411;-92
2022/09/14 04:43:40;;;;;;;11.03;9.93;;;19.10;99.90;;;;;;6156967;23;20434;-87
2022/09/14 04:46:10;;;;;;;10.47;9.37;;;19.00;99.90;;;;;;6157585;23;20411;-89
2022/09/14 04:48:37;;;;;;;12.73;10.07;;;19.00;99.90;;;;;;6158457;23;20980;-89
2022/09/14 04:51:05;;;;;;;13.17;11.83;;;18.90;99.90;;;;;;6157022;23;20451;-87
2022/09/14 04:53:37;;;;;;;10.93;9.73;;;19.00;99.90;;;;;;6160356;23;20435;-88
2022/09/14 04:56:05;;;;;;;13.30;10.43;;;18.90;99.90;;;;;;6169571;23;20756;-88
2022/09/14 04:58:32;;;;;;;13.37;10.80;;;18.90;99.90;;;;;;6161635;23;20406;-90
2022/09/14 05:01:07;;;;;;;13.03;11.67;;;18.90;99.90;;;;;;6164456;23;20521;-87
2022/09/14 05:03:34;;;;;;;12.90;11.60;;;18.90;99.90;;;;;;6167477;23;20478;-88
2022/09/14 05:06:02;;;;;;;14.10;11.70;;;18.90;99.90;;;;;;6168410;23;20403;-87
2022/09/14 05:08:29;;;;;;;16.83;12.03;;;18.80;99.90;;;;;;6169364;23;20449;-87
2022/09/14 05:10:56;;;;;;;16.67;13.10;;;18.80;99.90;;;;;;6169055;23;20435;-88
2022/09/14 05:13:23;;;;;;;13.77;11.60;;;18.90;99.90;;;;;;6154211;23;20482;-85
2022/09/14 05:15:50;;;;;;;13.60;11.10;;;18.90;99.90;;;;;;6156260;23;20410;-87
2022/09/14 05:18:19;;;;;;;13.03;11.73;;;18.80;99.90;;;;;;6155421;23;20969;-87
2022/09/14 05:20:45;;;;;;;11.90;10.70;;;18.80;99.90;;;;;;6157064;23;20407;-87
2022/09/14 05:23:12;;;;;;;13.03;11.70;;;18.90;99.90;;;;;;6164698;23;20474;-86
2022/09/14 05:25:39;;;;;;;10.90;9.90;;;18.90;99.90;;;;;;6172162;23;20409;-86
2022/09/14 05:28:06;;;;;;;13.27;9.87;;;19.00;99.90;;;;;;6167374;23;20519;-85
2022/09/14 05:30:33;;;;;;;11.70;10.27;;;19.00;99.90;;;;;;6159776;23;20411;-87
2022/09/14 05:32:59;;;;;;;10.97;10.03;;;19.10;99.90;;;;;;6157919;23;20434;-87
2022/09/14 05:35:28;;;;;;;12.90;11.50;;;19.10;99.90;;;;;;6160907;23;20411;-86
2022/09/14 05:37:54;;;;;;;10.20;9.20;;;19.20;99.90;;;;;;6164746;23;20471;-86
2022/09/14 05:40:21;;;;;;;10.20;9.23;;;19.20;99.90;;;;;;6164824;23;20410;-86
2022/09/14 05:42:48;;;;;;;12.17;10.10;;;19.30;99.90;;;;;;6156542;23;20954;-86
2022/09/14 05:45:15;;;;;;;12.17;10.50;;;19.30;99.90;;;;;;6156794;23;20408;-86
2022/09/14 05:47:41;;;;;;;9.83;8.83;;;19.40;99.90;;;;;;6158193;23;20418;-87
2022/09/14 05:50:09;;;;;;;12.60;10.80;;;19.50;99.90;;;;;;6158546;23;20958;-87
2022/09/14 05:52:37;;;;;;;12.50;11.13;;;19.50;99.90;;;;;;6157776;23;20427;-86
2022/09/14 05:55:04;;;;;;;12.07;9.37;;;19.50;99.90;;;;;;6163796;23;20412;-85
2022/09/14 05:57:31;;;;;;;9.40;8.60;;;19.60;99.90;;;;;;6179090;23;20415;-85
2022/09/14 05:59:57;;;;;;;11.93;9.77;;;19.70;99.90;;;;;;6182124;23;20463;-86
2022/09/14 06:02:24;;;;;;;11.73;10.30;;;19.70;99.90;;;;;;6171503;23;20410;-87
2022/09/14 06:04:51;;;;;;;11.50;8.47;;;19.80;99.90;;;;;;6163804;23;20395;-86
2022/09/14 06:07:18;;;;;;;11.77;9.90;;;19.80;99.90;;;;;;6176162;23;20408;-86
2022/09/14 06:09:46;;;;;;;9.97;9.00;;;19.90;99.90;;;;;;6167274;23;20423;-85
2022/09/14 06:12:13;;;;;;;9.40;8.50;;;20.00;99.90;;;;;;6181778;23;20387;-84
2022/09/14 06:14:40;;;;;;;9.70;8.37;;;20.10;99.90;;;;;;6177703;23;20407;-83
2022/09/14 06:17:07;;;;;;;10.40;9.17;;;20.20;99.90;;;;;;6167299;23;20462;-86
2022/09/14 06:19:33;;;;;;;10.70;9.53;;;20.30;99.90;;;;;;6158593;23;20474;-84
2022/09/14 06:22:01;;;;;;;12.10;8.73;;;20.40;99.90;;;;;;6157366;23;20434;-84
2022/09/14 06:24:27;;;;;;;10.00;8.50;;;20.50;99.90;;;;;;6157510;23;20757;-84
2022/09/14 06:26:55;;;;;;;11.70;9.23;;;20.50;99.90;;;;;;6179195;23;20393;-83
2022/09/14 06:29:24;;;;;;;9.80;8.10;;;20.70;99.90;;;;;;6165386;23;20506;-83
2022/09/14 06:31:51;;;;;;;10.00;8.90;;;20.80;99.90;;;;;;6159545;23;20738;-80
2022/09/14 06:34:17;;;;;;;10.17;8.80;;;20.90;99.90;;;;;;6158146;23;20428;-80
2022/09/14 06:36:44;;;;;;;11.67;9.17;;;21.00;99.90;;;;;;6157671;23;20392;-80
2022/09/14 06:39:11;;;;;;;11.60;8.90;;;21.10;99.90;;;;;;6160952;23;20411;-80
2022/09/14 06:41:38;;;;;;;10.20;8.60;;;21.20;99.90;;;;;;6158672;23;20926;-80
2022/09/14 06:44:06;;;;;;;11.07;7.67;;;21.30;99.90;;;;;;6172763;23;20427;-78
2022/09/14 06:46:34;;;;;;;9.13;7.80;;;21.40;99.90;;;;;;6169625;23;20451;-77
2022/09/14 06:49:03;;;;;;;11.93;8.20;;;21.40;99.90;;;;;;6159733;23;20445;-81
2022/09/14 06:51:33;;;;;;;10.07;8.90;;;21.40;99.90;;;;;;6165017;23;20418;-81
2022/09/14 06:54:00;;;;;;;10.80;9.67;;;21.50;99.90;;;;;;6160165;23;20427;-81
2022/09/14 06:56:28;;;;;;;15.17;9.73;;;21.50;99.90;;;;;;6168675;23;20413;-80
2022/09/14 06:58:54;;;;;;;15.40;9.30;;;21.40;99.90;;;;;;6162001;23;20451;-80
2022/09/14 07:01:24;;;;;;;11.67;8.47;;;21.40;99.90;;;;;;6165197;23;20411;-81
2022/09/14 07:03:51;;;;;;;10.10;8.60;;;21.50;99.90;;;;;;6174547;23;20438;-81
2022/09/14 07:06:20;;;;;;;10.10;7.70;;;21.60;99.90;;;;;;6176702;23;20391;-79
2022/09/14 07:08:48;;;;;;;12.67;9.53;;;21.60;99.90;;;;;;6176427;23;20427;-80
2022/09/14 07:11:17;;;;;;;8.60;6.10;;;21.70;99.90;;;;;;6163528;23;20434;-78
2022/09/14 07:13:45;;;;;;;8.70;6.30;;;21.70;99.90;;;;;;6161223;23;20434;-82
2022/09/14 07:16:12;;;;;;;7.77;7.10;;;21.80;99.90;;;;;;6160696;23;20425;-79
2022/09/14 07:18:41;;;;;;;12.07;5.50;;;21.90;99.90;;;;;;6162219;23;20765;-79
2022/09/14 07:21:10;;;;;;;7.23;6.50;;;22.00;99.90;;;;;;6160441;23;20429;-79
2022/09/14 07:23:39;;;;;;;7.30;5.17;;;22.20;99.90;;;;;;6160168;23;20431;-79
2022/09/14 07:26:07;;;;;;;14.20;6.40;;;22.40;99.90;;;;;;6160507;23;20403;-79
2022/09/14 07:28:35;;;;;;;6.73;4.70;;;22.40;99.90;;;;;;6160052;23;20400;-80
2022/09/14 07:31:03;;;;;;;5.57;4.70;;;22.40;99.90;;;;;;6159920;23;20415;-80
2022/09/14 07:33:29;;;;;;;7.97;4.97;;;22.50;99.90;;;;;;6163738;23;20443;-80
2022/09/14 07:36:06;;;;;;;4.90;3.97;;;22.40;99.90;;;;;;6162508;23;20407;-79
2022/09/14 07:38:32;;;;;;;5.40;4.50;;;22.50;99.90;;;;;;6171516;23;20918;-80
2022/09/14 07:41:00;;;;;;;6.63;4.10;;;22.40;99.90;;;;;;6161179;23;20745;-81
2022/09/14 07:43:26;;;;;;;5.20;4.30;;;22.50;99.90;;;;;;6160642;23;20435;-80
2022/09/14 07:45:53;;;;;;;7.23;4.30;;;22.70;99.90;;;;;;6159641;23;20407;-80
2022/09/14 07:48:20;;;;;;;9.83;4.93;;;22.80;99.90;;;;;;6159682;23;20434;-80
2022/09/14 07:50:47;;;;;;;5.33;4.10;;;22.80;99.90;;;;;;6160793;23;20770;-81
2022/09/14 07:53:15;;;;;;;5.67;4.77;;;22.90;99.90;;;;;;6160209;23;20437;-80
2022/09/14 07:55:42;;;;;;;5.93;5.00;;;22.90;99.90;;;;;;6160043;23;20941;-80
2022/09/14 07:58:08;;;;;;;5.23;4.40;;;23.10;99.90;;;;;;6160985;23;20412;-79
2022/09/14 08:00:35;;;;;;;4.73;4.30;;;23.00;99.90;;;;;;6171989;23;20407;-81
2022/09/14 08:03:02;;;;;;;4.13;3.53;;;23.20;99.90;;;;;;6177135;23;20415;-80
2022/09/14 08:05:29;;;;;;;5.33;4.57;;;23.30;99.90;;;;;;6168236;23;20780;-80
2022/09/14 08:07:56;;;;;;;4.80;4.20;;;23.30;99.90;;;;;;6165667;23;20443;-80
2022/09/14 08:10:25;;;;;;;5.73;3.97;;;23.40;99.90;;;;;;6174852;23;20936;-80
2022/09/14 08:12:52;;;;;;;4.90;4.00;;;23.50;99.90;;;;;;6160262;23;20428;-82
2022/09/14 08:15:20;;;;;;;4.50;4.10;;;23.60;99.90;;;;;;6159657;23;20887;-80
2022/09/14 08:17:47;;;;;;;4.53;3.30;;;23.80;99.90;;;;;;6163808;23;20419;-79
2022/09/14 08:20:15;;;;;;;5.80;4.10;;;23.90;99.90;;;;;;6163117;23;20408;-80
2022/09/14 08:22:43;;;;;;;4.60;4.10;;;23.90;99.90;;;;;;6160422;23;20431;-79
2022/09/14 08:25:10;;;;;;;5.43;3.70;;;23.90;99.90;;;;;;6160431;23;20404;-80
2022/09/14 08:27:39;;;;;;;7.63;4.67;;;24.20;99.90;;;;;;6160887;23;20730;-79
2022/09/14 08:30:07;;;;;;;4.60;3.80;;;24.60;99.90;;;;;;6159995;23;20448;-79
2022/09/14 08:32:33;;;;;;;5.43;3.53;;;24.70;99.90;;;;;;6160006;23;20435;-79
2022/09/14 08:35:01;;;;;;;3.40;3.10;;;24.70;99.90;;;;;;6158991;23;20413;-79
2022/09/14 08:37:27;;;;;;;4.90;3.60;;;24.60;99.90;;;;;;6159374;23;20401;-79
2022/09/14 08:39:54;;;;;;;4.90;3.40;;;24.80;99.90;;;;;;6160388;23;20413;-79
2022/09/14 08:42:24;;;;;;;4.87;4.20;;;25.10;99.90;;;;;;6164451;23;20964;-79
2022/09/14 08:44:57;;;;;;;4.00;3.30;;;25.20;99.90;;;;;;6167774;23;20484;-79
2022/09/14 08:47:27;;;;;;;7.70;4.43;;;24.90;99.90;;;;;;6161310;23;20398;-79
2022/09/14 08:50:01;;;;;;;6.33;4.00;;;24.50;99.90;;;;;;6158993;23;20440;-79
2022/09/14 08:52:32;;;;;;;5.87;4.00;;;24.50;99.90;;;;;;6158611;23;20776;-79
2022/09/14 08:55:01;;;;;;;5.07;3.73;;;24.90;99.90;;;;;;6160292;23;20402;-79
2022/09/14 08:57:34;;;;;;;5.00;4.50;;;25.10;99.90;;;;;;6169461;23;20416;-77
2022/09/14 09:00:09;;;;;;;7.30;3.63;;;25.30;99.90;;;;;;6172885;23;20385;-78
2022/09/14 09:03:03;;;;;;;5.23;3.53;;;26.10;99.90;;;;;;6173777;23;20510;-79
2022/09/14 09:05:39;;;;;;;5.23;3.10;;;26.40;99.90;;;;;;6162056;23;20380;-79
2022/09/14 09:08:16;;;;;;;6.37;3.33;;;27.00;99.90;;;;;;6158668;23;20886;-79
2022/09/14 09:10:44;;;;;;;7.60;3.43;;;27.00;99.90;;;;;;6158544;23;20458;-79
2022/09/14 09:13:17;;;;;;;5.73;3.20;;;27.60;99.90;;;;;;6159262;23;20468;-79
2022/09/14 09:15:49;;;;;;;4.57;3.77;;;28.30;99.90;;;;;;6159275;23;20484;-79
2022/09/14 09:18:21;;;;;;;4.53;3.53;;;28.70;99.90;;;;;;6159536;23;20399;-80
2022/09/14 09:20:51;;;;;;;3.60;2.60;;;29.70;98.40;;;;;;6159354;23;20388;-79
2022/09/14 09:23:19;;;;;;;3.40;2.67;;;30.20;97.20;;;;;;6159761;23;20432;-79
2022/09/14 09:25:55;;;;;;;4.83;2.83;;;29.70;96.40;;;;;;6159194;23;20403;-79
2022/09/14 09:28:23;;;;;;;3.43;3.00;;;29.50;96.10;;;;;;6158257;23;20723;-79
2022/09/14 09:30:52;;;;;;;3.93;2.80;;;29.90;96.50;;;;;;6158485;23;20447;-79
2022/09/14 09:33:22;;;;;;;3.30;2.50;;;29.90;94.80;;;;;;6158838;23;20479;-80
2022/09/14 09:35:50;;;;;;;4.27;2.80;;;29.60;95.50;;;;;;6164975;23;20388;-80
2022/09/14 09:38:23;;;;;;;4.40;2.87;;;29.40;95.40;;;;;;6181934;23;20377;-77
2022/09/14 09:40:53;;;;;;;4.70;3.00;;;29.40;96.30;;;;;;6181320;23;20417;-78
2022/09/14 09:43:21;;;;;;;5.10;3.13;;;29.00;96.10;;;;;;6174841;23;20454;-79
2022/09/14 09:45:57;;;;;;;4.60;3.60;;;28.60;97.80;;;;;;6178208;23;20417;-79
2022/09/14 09:48:28;;;;;;;7.20;3.70;;;28.20;98.80;;;;;;6178286;23;20388;-78
2022/09/14 09:51:03;;;;;;;4.80;3.30;;;28.40;98.80;;;;;;6180783;23;20427;-78
2022/09/14 09:53:32;;;;;;;3.70;2.80;;;29.50;96.20;;;;;;6167371;23;20427;-78
2022/09/14 09:55:59;;;;;;;2.83;2.50;;;31.40;93.70;;;;;;6168452;23;20915;-79
2022/09/14 09:58:31;;;;;;;5.33;2.47;;;33.00;89.30;;;;;;6162302;23;20411;-81
2022/09/14 10:01:01;;;;;;;4.23;2.30;;;32.50;82.60;;;;;;6159276;23;20408;-78
2022/09/14 10:03:32;;;;;;;4.23;2.00;;;31.80;83.50;;;;;;6159102;23;20428;-77
2022/09/14 10:06:08;;;;;;;3.40;2.40;;;30.90;87.40;;;;;;6157718;23;20402;-78
2022/09/14 10:08:41;;;;;;;7.30;2.70;;;29.90;90.30;;;;;;6157804;23;20796;-78
2022/09/14 10:11:31;;;;;;;5.60;2.50;;;29.50;91.50;;;;;;6157102;23;20427;-80
2022/09/14 10:13:58;;;;;;;5.60;2.67;;;30.00;91.60;;;;;;6163666;23;20436;-79
2022/09/14 10:16:33;;;;;;;3.50;3.10;;;30.10;90.40;;;;;;6167446;23;20461;-77
2022/09/14 10:19:01;;;;;;;6.40;3.27;;;30.50;89.80;;;;;;6170272;23;20399;-79
2022/09/14 10:21:30;;;;;;;3.47;2.70;;;30.20;89.20;;;;;;6177317;23;20493;-78
2022/09/14 10:24:07;;;;;;;4.60;2.57;;;29.90;90.30;;;;;;6176373;23;20417;-79
2022/09/14 10:26:37;;;;;;;4.50;3.40;;;29.50;91.10;;;;;;6159689;23;20418;-80
2022/09/14 10:29:34;;;;;;;4.53;2.80;;;28.70;92.20;;;;;;6158430;23;20463;-80
2022/09/14 10:32:16;;;;;;;4.10;2.60;;;28.90;93.30;;;;;;6157629;23;20425;-78
2022/09/14 10:34:45;;;;;;;3.20;2.70;;;29.90;91.60;;;;;;6158994;23;20400;-80
2022/09/14 10:37:23;;;;;;;6.97;3.77;;;30.30;89.80;;;;;;6161129;23;20397;-78
2022/09/14 10:39:59;;;;;;;4.87;2.93;;;30.20;90.00;;;;;;6158563;23;20855;-79
2022/09/14 10:42:31;;;;;;;4.73;3.27;;;29.70;90.50;;;;;;6159778;23;20393;-80
2022/09/14 10:45:13;;;;;;;7.10;3.93;;;30.00;90.10;;;;;;6158970;23;20463;-79
2022/09/14 10:48:02;;;;;;;5.50;3.47;;;30.50;90.00;;;;;;6159735;23;20862;-79
2022/09/14 10:50:47;;;;;;;4.10;3.20;;;30.30;89.10;;;;;;6159664;23;20441;-80
2022/09/14 10:53:23;;;;;;;4.97;3.40;;;29.50;90.30;;;;;;6159774;23;20428;-80
2022/09/14 10:56:00;;;;;;;5.67;3.73;;;29.40;91.10;;;;;;6160407;23;20402;-79
2022/09/14 10:58:58;;;;;;;3.47;3.00;;;29.30;90.50;;;;;;6158277;23;20406;-79
2022/09/14 11:01:35;;;;;;;5.23;2.83;;;28.90;91.00;;;;;;6159238;23;20927;-79
2022/09/14 11:04:14;;;;;;;3.43;2.43;;;28.80;91.00;;;;;;6159840;23;20433;-79
2022/09/14 11:06:52;;;;;;;2.90;2.37;;;29.40;90.40;;;;;;6158667;23;20394;-79
2022/09/14 11:09:25;;;;;;;6.30;2.90;;;29.50;90.30;;;;;;6161381;23;20402;-79
2022/09/14 11:12:01;;;;;;;4.47;2.37;;;29.50;89.30;;;;;;6167059;23;20437;-78
2022/09/14 11:14:41;;;;;;;4.00;2.70;;;29.40;89.30;;;;;;6163504;23;20445;-78
2022/09/14 11:17:22;;;;;;;3.40;2.40;;;29.90;88.70;;;;;;6164540;23;20389;-79
2022/09/14 11:20:00;;;;;;;3.30;2.40;;;30.30;86.50;;;;;;6160407;23;20419;-78
2022/09/14 11:22:35;;;;;;;3.60;2.63;;;32.20;82.40;;;;;;6159706;23;20387;-80
2022/09/14 11:25:09;;;;;;;4.17;2.63;;;33.10;77.80;;;;;;6160672;23;20389;-79
2022/09/14 11:27:40;;;;;;;3.70;2.20;;;33.40;74.70;;;;;;6158382;23;20465;-79
2022/09/14 11:30:14;;;;;;;7.67;3.37;;;32.80;76.40;;;;;;6158738;23;20429;-78
2022/09/14 11:32:45;;;;;;;4.90;2.93;;;33.90;74.00;;;;;;6159446;23;20960;-79
2022/09/14 11:35:18;;;;;;;3.70;2.53;;;33.40;73.20;;;;;;6157886;23;20390;-78
2022/09/14 11:37:50;;;;;;;4.10;2.53;;;32.40;73.50;;;;;;6157953;23;20389;-78
2022/09/14 11:40:22;;;;;;;3.60;2.60;;;31.20;77.70;;;;;;6158819;23;20388;-78
2022/09/14 11:42:55;;;;;;;5.07;2.80;;;31.20;78.60;;;;;;6158847;23;20466;-80
2022/09/14 11:45:26;;;;;;;6.73;2.90;;;30.70;82.00;;;;;;6159659;23;20404;-79
2022/09/14 11:48:02;;;;;;;3.30;2.30;;;30.40;82.50;;;;;;6163570;23;20722;-78
2022/09/14 11:50:31;;;;;;;4.07;2.57;;;30.70;82.00;;;;;;6167593;23;20430;-78
2022/09/14 11:53:04;;;;;;;5.40;2.80;;;30.60;81.50;;;;;;6166569;23;20431;-79
2022/09/14 11:55:31;;;;;;;4.20;3.13;;;30.70;82.10;;;;;;6160331;23;20412;-79
2022/09/14 11:58:06;;;;;;;6.23;3.13;;;30.50;83.10;;;;;;6160120;23;20414;-80
2022/09/14 12:01:01;;;;;;;5.67;2.77;;;30.30;83.30;;;;;;6159486;23;20724;-78
2022/09/14 12:03:54;;;;;;;5.10;2.37;;;29.50;84.20;;;;;;6175298;23;20424;-79
2022/09/14 12:09:40;;;;;;;3.17;2.43;;;28.50;87.40;;;;;;6126926;23;20410;-84
2022/09/14 12:12:29;;;;;;;6.27;2.87;;;28.10;87.90;;;;;;6126892;23;20447;-84
2022/09/14 12:15:01;;;;;;;4.20;2.30;;;27.60;89.40;;;;;;6127966;23;20418;-84
2022/09/14 12:17:32;;;;;;;3.57;2.70;;;27.50;90.00;;;;;;6118421;23;20436;-84
2022/09/14 12:20:15;;;;;;;4.43;3.00;;;27.50;90.50;;;;;;6099907;23;20393;-84
2022/09/14 12:22:42;;;;;;;7.07;3.10;;;27.50;91.00;;;;;;6096743;23;20446;-85
2022/09/14 12:25:18;;;;;;;4.00;3.33;;;27.70;91.50;;;;;;6097746;23;20903;-85
2022/09/14 12:27:47;;;;;;;4.40;3.83;;;28.00;91.20;;;;;;6098560;23;20460;-86
2022/09/14 12:30:52;;;;;;;3.90;3.10;;;28.20;90.70;;;;;;6117785;23;20389;-85
2022/09/14 12:33:52;;;;;;;3.10;2.80;;;28.20;90.50;;;;;;6120978;23;20452;-85
2022/09/14 12:36:52;;;;;;;4.47;2.73;;;27.90;90.80;;;;;;6109817;23;20415;-84
2022/09/14 12:39:22;;;;;;;4.00;2.57;;;27.50;91.60;;;;;;6097999;23;20724;-85
2022/09/14 12:42:28;;;;;;;4.23;2.80;;;27.30;92.00;;;;;;6099423;23;20473;-84
2022/09/14 12:44:55;;;;;;;4.03;3.00;;;27.10;92.90;;;;;;6081335;23;21007;-84
2022/09/14 12:47:58;;;;;;;7.70;3.30;;;26.90;93.00;;;;;;6119640;23;20840;-84
2022/09/14 12:50:31;;;;;;;6.20;3.93;;;26.40;93.60;;;;;;6108211;23;20396;-85
2022/09/14 12:53:20;;;;;;;7.57;4.30;;;26.20;95.50;;;;;;6102711;23;20404;-85
2022/09/14 12:56:00;;;;;;;4.20;3.80;;;25.70;99.90;;;;;;6105800;23;20388;-83
2022/09/14 12:58:48;;;;;;;8.17;3.50;;;24.90;99.90;;;;;;6107149;23;20463;-85
2022/09/14 13:01:26;;;;;;;4.47;3.10;;;24.60;99.90;;;;;;6102232;23;20431;-85
2022/09/14 13:03:55;;;;;;;9.17;4.03;;;24.30;99.90;;;;;;6101484;23;20695;-84
2022/09/14 13:06:23;;;;;;;6.10;3.90;;;24.00;99.90;;;;;;6101629;23;20753;-84